Time;durP1;ratioP1;P1;durP2;ratioP2;P2;SDS_P1;SDS_P2;PMS_P1;PMS_P2;Temp;Humidity;BMP_temperature;BMP_pressure;BME280_temperature;BME280_humidity;BME280_pressure;Samples;Min_cycle;Max_cycle;Signal;HPM_P1;HPM_P2
2023/04/16 00:00:25;;;;;;;3.53;3.22;;;19.10;58.00;;;;;;5019880;28;20017;-46
2023/04/16 00:02:50;;;;;;;4.13;3.00;;;19.10;58.00;;;;;;5014288;28;20052;-49
2023/04/16 00:05:16;;;;;;;3.35;3.03;;;19.10;58.00;;;;;;5013780;28;20079;-49
2023/04/16 00:07:41;;;;;;;3.75;2.90;;;19.10;58.00;;;;;;5013590;28;20022;-51
2023/04/16 00:10:07;;;;;;;3.83;2.97;;;19.10;58.00;;;;;;5019326;28;20407;-52
2023/04/16 00:12:33;;;;;;;3.47;3.17;;;19.10;58.00;;;;;;5014995;28;20033;-51
2023/04/16 00:14:58;;;;;;;3.88;2.90;;;19.10;58.00;;;;;;5016960;28;20040;-49
2023/04/16 00:17:24;;;;;;;3.30;3.00;;;19.00;58.00;;;;;;5019006;28;20025;-48
2023/04/16 00:19:49;;;;;;;3.47;3.17;;;19.00;58.00;;;;;;5015886;28;20025;-50
2023/04/16 00:22:15;;;;;;;4.03;3.10;;;19.00;58.10;;;;;;5017520;28;20888;-50
2023/04/16 00:24:41;;;;;;;4.22;3.63;;;19.10;58.00;;;;;;5019350;28;20398;-51
2023/04/16 00:27:06;;;;;;;4.75;3.20;;;19.00;58.00;;;;;;5018529;28;20041;-49
2023/04/16 00:29:33;;;;;;;3.95;3.38;;;19.00;58.00;;;;;;5014080;28;20041;-50
2023/04/16 00:31:59;;;;;;;3.40;3.10;;;19.00;58.00;;;;;;5015991;28;20029;-53
2023/04/16 00:34:24;;;;;;;3.88;3.50;;;19.00;58.00;;;;;;5016841;28;20116;-46
2023/04/16 00:36:50;;;;;;;4.05;3.15;;;19.00;58.10;;;;;;5013110;28;20079;-48
2023/04/16 00:39:15;;;;;;;3.45;3.15;;;19.10;58.00;;;;;;5017882;28;20438;-48
2023/04/16 00:41:42;;;;;;;3.10;2.80;;;19.00;58.00;;;;;;5019526;28;20029;-50
2023/04/16 00:44:08;;;;;;;3.40;3.10;;;19.00;58.00;;;;;;5017471;28;20041;-51
2023/04/16 00:46:34;;;;;;;3.30;3.00;;;19.00;58.00;;;;;;5015729;28;20113;-50
2023/04/16 00:49:00;;;;;;;3.78;3.22;;;19.00;58.00;;;;;;5015310;28;20097;-47
2023/04/16 00:51:25;;;;;;;3.25;2.95;;;19.00;58.00;;;;;;5018821;28;20116;-48
2023/04/16 00:53:51;;;;;;;3.30;3.00;;;19.00;58.00;;;;;;5017872;28;20379;-50
2023/04/16 00:56:18;;;;;;;3.40;3.10;;;19.00;58.00;;;;;;5020336;28;20029;-50
2023/04/16 00:58:43;;;;;;;3.40;3.10;;;19.00;58.00;;;;;;5014832;28;20108;-46
2023/04/16 01:01:09;;;;;;;3.47;2.70;;;19.00;58.00;;;;;;5018210;28;20121;-48
2023/04/16 01:03:48;;;;;;;3.47;3.17;;;19.00;58.00;;;;;;5014176;28;20040;-48
2023/04/16 01:06:16;;;;;;;3.15;2.85;;;19.00;58.00;;;;;;5017923;28;20387;-47
2023/04/16 01:08:42;;;;;;;4.05;3.08;;;19.00;58.00;;;;;;5019248;28;20022;-48
2023/04/16 01:11:09;;;;;;;4.22;3.03;;;19.00;58.00;;;;;;5018621;28;20021;-46
2023/04/16 01:13:38;;;;;;;3.65;3.35;;;19.00;58.00;;;;;;5015669;28;20038;-47
2023/04/16 01:16:05;;;;;;;3.67;3.20;;;19.00;58.00;;;;;;5015618;28;20049;-48
2023/04/16 01:18:31;;;;;;;3.20;2.90;;;19.00;58.00;;;;;;5014189;28;20034;-47
2023/04/16 01:20:56;;;;;;;3.35;3.05;;;19.00;58.00;;;;;;5016251;28;20038;-50
2023/04/16 01:23:22;;;;;;;2.88;2.67;;;19.00;58.00;;;;;;5019706;28;20026;-49
2023/04/16 01:25:47;;;;;;;3.00;2.63;;;19.00;58.00;;;;;;5015240;28;20025;-46
2023/04/16 01:28:13;;;;;;;3.03;2.60;;;19.00;58.00;;;;;;5018895;28;20610;-49
2023/04/16 01:30:38;;;;;;;3.13;2.83;;;19.00;58.00;;;;;;5019356;28;20363;-51
2023/04/16 01:33:04;;;;;;;2.53;2.33;;;19.00;58.00;;;;;;5023705;28;20060;-48
2023/04/16 01:35:30;;;;;;;2.85;2.55;;;18.90;57.90;;;;;;5022596;28;20104;-50
2023/04/16 01:37:55;;;;;;;4.55;2.67;;;19.00;58.00;;;;;;5023679;28;20117;-48
2023/04/16 01:40:20;;;;;;;2.83;2.55;;;19.00;58.00;;;;;;5020669;28;20057;-50
2023/04/16 01:42:46;;;;;;;4.22;2.80;;;19.00;57.90;;;;;;5019722;28;20539;-48
2023/04/16 01:45:12;;;;;;;2.58;2.38;;;19.00;57.90;;;;;;5019011;28;20034;-47
2023/04/16 01:47:37;;;;;;;2.75;2.33;;;19.00;57.90;;;;;;5020493;28;20029;-49
2023/04/16 01:50:04;;;;;;;2.47;2.28;;;19.00;58.00;;;;;;5016420;28;20404;-50
2023/04/16 01:52:30;;;;;;;3.88;2.85;;;19.00;58.00;;;;;;5021878;28;20349;-50
2023/04/16 01:54:55;;;;;;;2.45;2.25;;;18.90;57.90;;;;;;5022087;28;20037;-51
2023/04/16 01:57:21;;;;;;;2.60;2.15;;;18.90;57.90;;;;;;5019834;28;20053;-49
2023/04/16 01:59:46;;;;;;;2.60;2.40;;;19.00;57.90;;;;;;5020137;28;20264;-50
2023/04/16 02:02:14;;;;;;;2.80;2.53;;;19.00;57.90;;;;;;5019320;28;20539;-50
2023/04/16 02:04:42;;;;;;;2.13;1.80;;;19.00;57.90;;;;;;5019342;28;20538;-51
2023/04/16 02:07:08;;;;;;;2.75;2.55;;;19.00;57.90;;;;;;5020948;28;20029;-47
2023/04/16 02:09:35;;;;;;;2.40;2.20;;;19.00;57.90;;;;;;5018346;28;20057;-51
2023/04/16 02:12:02;;;;;;;2.85;2.58;;;19.00;57.90;;;;;;5035374;28;20033;-46
2023/04/16 02:14:28;;;;;;;2.60;2.40;;;19.00;57.90;;;;;;5017745;28;20029;-47
2023/04/16 02:16:53;;;;;;;2.25;2.05;;;19.00;57.90;;;;;;5013659;28;20440;-50
2023/04/16 02:19:19;;;;;;;3.10;2.15;;;18.90;57.80;;;;;;5020777;28;20041;-49
2023/04/16 02:21:45;;;;;;;2.78;2.50;;;18.90;57.80;;;;;;5021759;28;20033;-48
2023/04/16 02:24:10;;;;;;;2.53;2.33;;;18.90;57.80;;;;;;5021029;28;20036;-51
2023/04/16 02:26:36;;;;;;;3.50;2.30;;;18.90;57.80;;;;;;5020215;28;20026;-52
2023/04/16 02:29:01;;;;;;;2.90;2.30;;;18.90;57.90;;;;;;5017206;28;20557;-49
2023/04/16 02:31:27;;;;;;;2.50;2.17;;;18.90;57.90;;;;;;5016253;28;20030;-49
2023/04/16 02:33:53;;;;;;;2.35;2.15;;;18.90;57.90;;;;;;5020650;28;20120;-49
2023/04/16 02:36:19;;;;;;;2.45;2.25;;;18.90;57.90;;;;;;5019463;28;20878;-48
2023/04/16 02:38:44;;;;;;;2.25;2.05;;;18.90;57.90;;;;;;5016712;28;20030;-48
2023/04/16 02:41:10;;;;;;;1.98;1.85;;;18.90;57.90;;;;;;5018696;28;20567;-48
2023/04/16 02:43:35;;;;;;;2.45;2.25;;;18.90;57.90;;;;;;5018183;28;20056;-49
2023/04/16 02:46:01;;;;;;;2.15;1.80;;;18.90;57.90;;;;;;5013588;28;20394;-50
2023/04/16 02:48:26;;;;;;;2.92;2.70;;;18.90;57.90;;;;;;5022956;28;20474;-48
2023/04/16 02:50:52;;;;;;;2.28;2.08;;;18.90;58.00;;;;;;5022610;28;20026;-47
2023/04/16 02:53:18;;;;;;;2.92;2.63;;;18.90;58.00;;;;;;5020521;28;20678;-54
2023/04/16 02:55:53;;;;;;;3.50;2.40;;;18.90;58.00;;;;;;5019816;28;20487;-52
2023/04/16 02:58:20;;;;;;;2.97;2.65;;;18.90;58.00;;;;;;5013380;28;20045;-52
2023/04/16 03:00:45;;;;;;;3.05;2.75;;;18.90;58.00;;;;;;5019535;28;20041;-52
2023/04/16 03:03:11;;;;;;;2.45;2.30;;;18.90;58.00;;;;;;5022206;28;20017;-50
2023/04/16 03:05:36;;;;;;;2.80;2.60;;;18.90;58.00;;;;;;5019583;28;20091;-52
2023/04/16 03:08:05;;;;;;;3.33;2.90;;;18.90;58.10;;;;;;5018312;28;20408;-51
2023/04/16 03:10:31;;;;;;;4.68;2.97;;;18.90;58.10;;;;;;5019165;28;20665;-48
2023/04/16 03:12:57;;;;;;;3.13;2.83;;;18.90;58.10;;;;;;5017911;28;20097;-51
2023/04/16 03:15:22;;;;;;;2.85;2.25;;;18.90;58.10;;;;;;5014625;28;20149;-51
2023/04/16 03:17:48;;;;;;;2.60;2.40;;;18.80;58.00;;;;;;5021608;28;20094;-51
2023/04/16 03:20:15;;;;;;;3.22;2.83;;;18.90;58.10;;;;;;5023644;28;20045;-48
2023/04/16 03:22:41;;;;;;;4.40;2.70;;;18.80;58.00;;;;;;5019885;28;20053;-51
2023/04/16 03:25:07;;;;;;;3.28;2.97;;;18.90;58.10;;;;;;5017969;28;20034;-48
2023/04/16 03:27:33;;;;;;;3.10;2.80;;;18.80;58.00;;;;;;5019032;28;20038;-49
2023/04/16 03:29:59;;;;;;;4.18;2.83;;;18.90;58.10;;;;;;5017557;28;20037;-52
2023/04/16 03:32:24;;;;;;;3.20;2.88;;;18.90;58.10;;;;;;5019440;28;20041;-50
2023/04/16 03:34:50;;;;;;;3.33;2.80;;;18.90;58.10;;;;;;5018554;28;20479;-49
2023/04/16 03:37:15;;;;;;;3.22;2.90;;;18.90;58.10;;;;;;5016263;28;20073;-49
2023/04/16 03:39:41;;;;;;;3.08;2.78;;;18.90;58.10;;;;;;5017034;28;20061;-51
2023/04/16 03:42:06;;;;;;;3.13;2.90;;;18.90;58.10;;;;;;5017316;28;20034;-53
2023/04/16 03:44:32;;;;;;;3.47;3.15;;;18.80;58.00;;;;;;5013482;28;20042;-48
2023/04/16 03:46:58;;;;;;;3.70;3.40;;;18.80;58.00;;;;;;5021175;28;20026;-49
2023/04/16 03:49:23;;;;;;;4.78;3.13;;;18.80;58.10;;;;;;5019538;28;20029;-51
2023/04/16 03:51:49;;;;;;;3.95;3.55;;;18.80;58.10;;;;;;5019121;28;20040;-52
2023/04/16 03:54:14;;;;;;;3.72;3.40;;;18.80;58.10;;;;;;5020528;28;20586;-59
2023/04/16 03:56:40;;;;;;;3.88;3.38;;;18.80;58.10;;;;;;5019280;28;20034;-50
2023/04/16 03:59:06;;;;;;;3.63;3.30;;;18.80;58.10;;;;;;5020524;28;20034;-50
2023/04/16 04:01:32;;;;;;;3.60;3.30;;;18.80;58.10;;;;;;5019985;28;20030;-51
2023/04/16 04:03:57;;;;;;;4.00;3.47;;;18.80;58.10;;;;;;5017432;28;20484;-50
2023/04/16 04:06:23;;;;;;;3.40;3.10;;;18.80;58.20;;;;;;5015425;28;20079;-52
2023/04/16 04:08:49;;;;;;;4.78;3.53;;;18.80;58.10;;;;;;5028117;28;20096;-51
2023/04/16 04:11:15;;;;;;;3.50;3.20;;;18.80;58.10;;;;;;5020381;28;20441;-50
2023/04/16 04:13:40;;;;;;;3.67;3.38;;;18.80;58.20;;;;;;5015246;28;20034;-53
2023/04/16 04:16:06;;;;;;;4.15;3.75;;;18.80;58.10;;;;;;5021037;28;20446;-50
2023/04/16 04:18:31;;;;;;;4.00;3.55;;;18.80;58.20;;;;;;5020915;28;20064;-52
2023/04/16 04:20:57;;;;;;;4.22;3.50;;;18.80;58.20;;;;;;5035234;28;20117;-52
2023/04/16 04:23:22;;;;;;;3.58;3.28;;;18.80;58.20;;;;;;5017909;28;20124;-56
2023/04/16 04:25:48;;;;;;;4.30;3.90;;;18.80;58.20;;;;;;5018218;28;20030;-49
2023/04/16 04:28:14;;;;;;;4.00;3.60;;;18.80;58.20;;;;;;5017671;28;20052;-48
2023/04/16 04:30:40;;;;;;;4.28;3.88;;;18.80;58.20;;;;;;5019422;28;20361;-50
2023/04/16 04:35:36;;;;;;;4.40;4.00;;;18.80;58.30;;;;;;5030805;28;20236;-51
2023/04/16 04:38:01;;;;;;;6.53;4.65;;;18.80;58.30;;;;;;5032623;28;20090;-54
2023/04/16 04:40:27;;;;;;;4.65;4.00;;;18.80;58.30;;;;;;5033997;28;20079;-55
2023/04/16 04:42:52;;;;;;;4.97;3.92;;;18.80;58.30;;;;;;5033951;28;20033;-48
2023/04/16 04:45:18;;;;;;;5.53;4.45;;;18.80;58.30;;;;;;5035549;28;20029;-50
2023/04/16 04:47:44;;;;;;;4.20;3.80;;;18.80;58.30;;;;;;5035678;28;20417;-54
2023/04/16 04:50:09;;;;;;;4.93;4.45;;;18.80;58.30;;;;;;5032282;28;20032;-46
2023/04/16 04:52:35;;;;;;;4.78;4.03;;;18.80;58.30;;;;;;5033257;28;20045;-50
2023/04/16 04:55:01;;;;;;;4.47;3.92;;;18.80;58.30;;;;;;5033755;28;20509;-50
2023/04/16 04:57:26;;;;;;;4.28;3.88;;;18.80;58.20;;;;;;5034161;28;20025;-54
2023/04/16 04:59:51;;;;;;;4.63;4.10;;;18.80;58.20;;;;;;5034533;28;20086;-48
2023/04/16 05:02:17;;;;;;;4.82;4.43;;;18.70;58.20;;;;;;5033672;28;20240;-50
2023/04/16 05:04:42;;;;;;;5.95;4.40;;;18.80;58.20;;;;;;5039812;28;20098;-49
2023/04/16 05:07:08;;;;;;;5.22;4.43;;;18.80;58.20;;;;;;5035973;28;20042;-56
2023/04/16 05:09:33;;;;;;;4.35;3.95;;;18.80;58.20;;;;;;5039489;28;20026;-49
2023/04/16 05:11:59;;;;;;;4.70;4.20;;;18.80;58.20;;;;;;5035250;28;20490;-51
2023/04/16 05:14:24;;;;;;;4.90;4.45;;;18.80;58.20;;;;;;5037185;28;20037;-56
2023/04/16 05:16:50;;;;;;;5.32;3.92;;;18.80;58.20;;;;;;5032833;28;20192;-57
2023/04/16 05:19:16;;;;;;;4.72;4.18;;;18.80;58.20;;;;;;5032992;28;20075;-51
2023/04/16 05:21:41;;;;;;;4.68;4.18;;;18.80;58.10;;;;;;5036757;28;20041;-49
2023/04/16 05:24:07;;;;;;;5.85;4.03;;;18.80;58.20;;;;;;5039667;28;20119;-52
2023/04/16 05:26:32;;;;;;;6.30;4.55;;;18.80;58.10;;;;;;5038520;28;20044;-53
2023/04/16 05:28:58;;;;;;;5.60;4.63;;;18.80;58.10;;;;;;5036410;28;20148;-48
2023/04/16 05:31:23;;;;;;;4.20;3.80;;;18.80;58.10;;;;;;5036752;28;20029;-50
2023/04/16 05:33:49;;;;;;;5.07;3.92;;;18.80;58.10;;;;;;5033998;28;20140;-55
2023/04/16 05:36:14;;;;;;;5.07;4.57;;;18.80;58.10;;;;;;5036952;28;20029;-48
2023/04/16 05:38:40;;;;;;;5.00;4.50;;;18.80;58.10;;;;;;5040064;28;20025;-51
2023/04/16 05:41:05;;;;;;;4.10;3.70;;;18.80;58.20;;;;;;5033609;28;20030;-52
2023/04/16 05:43:31;;;;;;;5.30;4.20;;;18.80;58.10;;;;;;5035566;28;20570;-50
2023/04/16 05:45:56;;;;;;;5.75;4.13;;;18.80;58.10;;;;;;5033659;28;20029;-55
2023/04/16 05:48:22;;;;;;;4.55;4.15;;;18.80;58.10;;;;;;5039278;28;20045;-50
2023/04/16 05:50:48;;;;;;;4.22;3.83;;;18.80;58.10;;;;;;5038462;28;20643;-55
2023/04/16 05:53:13;;;;;;;5.00;4.30;;;18.80;58.10;;;;;;5040491;28;20036;-54
2023/04/16 05:55:39;;;;;;;4.20;3.80;;;18.80;58.20;;;;;;5036102;28;20025;-49
2023/04/16 05:58:05;;;;;;;4.05;3.60;;;18.70;58.10;;;;;;5035409;28;20029;-49
2023/04/16 06:00:33;;;;;;;4.90;4.45;;;18.70;58.10;;;;;;5037928;28;20029;-54
2023/04/16 06:02:59;;;;;;;4.30;3.90;;;18.70;58.20;;;;;;5033852;28;20091;-55
2023/04/16 06:05:25;;;;;;;4.28;3.88;;;18.70;58.20;;;;;;5034512;28;20491;-53
2023/04/16 06:07:51;;;;;;;4.57;4.18;;;18.70;58.30;;;;;;5038195;28;20416;-52
2023/04/16 06:10:16;;;;;;;4.25;3.85;;;18.70;58.20;;;;;;5034088;28;20036;-53
2023/04/16 06:12:42;;;;;;;5.18;4.10;;;18.70;58.30;;;;;;5037489;28;20060;-51
2023/04/16 06:15:08;;;;;;;4.35;3.95;;;18.70;58.30;;;;;;5032502;28;20037;-49
2023/04/16 06:17:33;;;;;;;6.07;4.40;;;18.70;58.30;;;;;;5031866;28;20029;-51
2023/04/16 06:19:59;;;;;;;4.35;3.95;;;18.70;58.30;;;;;;5037739;28;20056;-54
2023/04/16 06:22:25;;;;;;;4.45;4.05;;;18.70;58.30;;;;;;5040162;28;20044;-56
2023/04/16 06:24:50;;;;;;;3.95;3.65;;;18.70;58.30;;;;;;5035277;28;20386;-55
2023/04/16 06:27:16;;;;;;;4.70;4.30;;;18.70;58.40;;;;;;5036685;28;20492;-51
2023/04/16 06:29:42;;;;;;;4.68;4.18;;;18.70;58.40;;;;;;5046109;28;20037;-51
2023/04/16 06:32:07;;;;;;;4.70;4.30;;;18.70;58.40;;;;;;5032367;28;20530;-50
2023/04/16 06:34:33;;;;;;;4.47;4.03;;;18.70;58.40;;;;;;5034939;28;20528;-54
2023/04/16 06:36:58;;;;;;;4.22;3.88;;;18.70;58.40;;;;;;5036126;28;20708;-48
2023/04/16 06:39:24;;;;;;;4.20;3.83;;;18.70;58.40;;;;;;5034655;28;20028;-50
2023/04/16 06:41:50;;;;;;;4.97;4.47;;;18.70;58.40;;;;;;5031476;28;20040;-50
2023/04/16 06:44:15;;;;;;;4.78;4.00;;;18.70;58.40;;;;;;5030112;28;20033;-55
2023/04/16 06:46:41;;;;;;;5.00;4.50;;;18.70;59.00;;;;;;5032164;28;20087;-50
2023/04/16 06:49:06;;;;;;;4.03;3.67;;;18.70;58.40;;;;;;5034598;28;20477;-51
2023/04/16 06:51:32;;;;;;;4.70;4.20;;;18.70;58.40;;;;;;5038840;28;20043;-51
2023/04/16 06:53:58;;;;;;;4.43;4.03;;;18.70;58.00;;;;;;5034818;28;20078;-54
2023/04/16 06:56:23;;;;;;;6.82;4.05;;;18.70;58.40;;;;;;5036830;28;20025;-52
2023/04/16 06:58:49;;;;;;;10.25;4.55;;;18.70;58.50;;;;;;5034301;28;20029;-48
2023/04/16 07:01:16;;;;;;;4.57;4.18;;;18.70;58.60;;;;;;5033044;28;20436;-48
2023/04/16 07:03:41;;;;;;;6.50;3.78;;;18.70;58.60;;;;;;5034885;28;20185;-53
2023/04/16 07:06:07;;;;;;;4.43;4.03;;;18.70;58.60;;;;;;5034858;28;20041;-55
2023/04/16 07:08:32;;;;;;;4.32;3.92;;;18.70;58.80;;;;;;5034363;28;20033;-53
2023/04/16 07:10:58;;;;;;;6.88;4.20;;;18.70;58.90;;;;;;5034030;28;20296;-53
2023/04/16 07:13:24;;;;;;;4.75;4.32;;;18.70;59.00;;;;;;5033170;28;20025;-48
2023/04/16 07:15:50;;;;;;;7.60;4.57;;;18.60;59.00;;;;;;5037402;28;20034;-59
2023/04/16 07:18:16;;;;;;;7.00;4.38;;;18.60;59.00;;;;;;5033695;28;20036;-50
2023/04/16 07:20:41;;;;;;;7.13;4.25;;;18.70;59.20;;;;;;5029673;28;20048;-48
2023/04/16 07:23:07;;;;;;;9.38;4.90;;;18.60;59.20;;;;;;5031646;28;20029;-52
2023/04/16 07:25:32;;;;;;;6.28;4.30;;;18.60;59.40;;;;;;5031149;28;20032;-52
2023/04/16 07:27:58;;;;;;;7.82;4.47;;;18.60;59.40;;;;;;5032352;28;20514;-54
2023/04/16 07:30:23;;;;;;;10.20;4.70;;;18.60;59.40;;;;;;5031244;28;20037;-53
2023/04/16 07:32:50;;;;;;;7.88;4.43;;;18.60;59.40;;;;;;5033620;28;20394;-55
2023/04/16 07:35:16;;;;;;;6.40;4.50;;;18.60;59.40;;;;;;5035360;28;21419;-49
2023/04/16 07:37:41;;;;;;;5.80;4.22;;;18.60;59.50;;;;;;5033691;28;20467;-52
2023/04/16 07:40:07;;;;;;;7.50;4.30;;;18.60;59.50;;;;;;5034134;28;20162;-55
2023/04/16 07:42:33;;;;;;;6.35;4.35;;;18.60;59.50;;;;;;5034702;28;20129;-56
2023/04/16 07:44:58;;;;;;;5.30;4.15;;;18.60;59.50;;;;;;5033323;28;20042;-49
2023/04/16 07:47:25;;;;;;;7.30;4.45;;;18.60;59.50;;;;;;5031829;28;20155;-48
2023/04/16 07:49:51;;;;;;;7.35;4.70;;;18.60;59.70;;;;;;5033801;28;20033;-51
2023/04/16 07:52:16;;;;;;;7.50;4.13;;;18.60;60.80;;;;;;5028676;28;20044;-51
2023/04/16 07:54:41;;;;;;;6.80;5.30;;;18.60;60.60;;;;;;5028717;28;20796;-52
2023/04/16 07:57:07;;;;;;;8.48;4.38;;;18.70;60.40;;;;;;5031964;28;20025;-56
2023/04/16 07:59:32;;;;;;;8.93;4.25;;;18.80;60.20;;;;;;5030665;28;20036;-49
2023/04/16 08:01:58;;;;;;;7.63;4.20;;;18.80;59.70;;;;;;5032715;28;20114;-55
2023/04/16 08:04:24;;;;;;;7.70;4.22;;;18.90;59.90;;;;;;5037057;28;20029;-56
2023/04/16 08:06:50;;;;;;;9.98;4.78;;;18.90;59.60;;;;;;5031992;28;20056;-54
2023/04/16 08:09:17;;;;;;;8.82;3.95;;;19.10;59.40;;;;;;5032936;28;20501;-52
2023/04/16 08:11:43;;;;;;;13.93;4.53;;;19.20;58.80;;;;;;5033050;28;20508;-54
2023/04/16 08:14:08;;;;;;;7.57;4.18;;;19.40;58.30;;;;;;5033699;28;20059;-51
2023/04/16 08:16:34;;;;;;;7.97;3.92;;;19.50;57.80;;;;;;5033603;28;20029;-54
2023/04/16 08:18:59;;;;;;;7.28;4.10;;;19.70;57.50;;;;;;5032226;28;20068;-48
2023/04/16 08:21:26;;;;;;;10.50;4.35;;;19.80;57.00;;;;;;5034630;28;20338;-49
2023/04/16 08:23:52;;;;;;;8.82;4.22;;;19.90;56.80;;;;;;5031686;28;20029;-52
2023/04/16 08:26:18;;;;;;;9.63;4.60;;;20.00;56.60;;;;;;5031218;28;20037;-55
2023/04/16 08:28:43;;;;;;;8.85;4.35;;;20.10;56.50;;;;;;5029945;28;20487;-51
2023/04/16 08:31:10;;;;;;;11.73;3.72;;;20.10;56.30;;;;;;5029625;28;20030;-51
2023/04/16 08:33:35;;;;;;;7.13;3.80;;;20.10;56.20;;;;;;5035050;28;20486;-49
2023/04/16 08:36:01;;;;;;;8.75;3.85;;;20.20;56.00;;;;;;5029427;28;20168;-51
2023/04/16 08:38:26;;;;;;;7.05;4.10;;;20.20;55.90;;;;;;5037541;28;20134;-54
2023/04/16 08:40:53;;;;;;;13.82;4.05;;;20.30;56.10;;;;;;5033337;28;20029;-52
2023/04/16 08:43:22;;;;;;;7.47;4.05;;;20.20;56.00;;;;;;5034385;28;20032;-51
2023/04/16 08:45:49;;;;;;;10.70;4.13;;;20.20;56.00;;;;;;5032062;28;20384;-53
2023/04/16 08:48:15;;;;;;;8.23;3.90;;;20.20;56.10;;;;;;5031767;28;20502;-49
2023/04/16 08:50:41;;;;;;;7.72;4.00;;;20.10;56.20;;;;;;5028273;28;20052;-53
2023/04/16 08:53:10;;;;;;;5.28;3.88;;;20.10;56.30;;;;;;5028044;28;20179;-54
2023/04/16 08:55:42;;;;;;;5.72;4.10;;;20.10;56.40;;;;;;5031378;28;20037;-51
2023/04/16 08:58:19;;;;;;;24.60;10.15;;;20.10;56.60;;;;;;5030448;28;20060;-53
2023/04/16 09:00:46;;;;;;;29.15;14.73;;;20.20;56.90;;;;;;5034405;28;20040;-57
2023/04/16 09:03:12;;;;;;;32.90;15.88;;;20.10;57.10;;;;;;5033428;28;20025;-49
2023/04/16 09:05:38;;;;;;;44.35;17.90;;;20.10;57.40;;;;;;5036920;28;20102;-51
2023/04/16 09:08:05;;;;;;;31.13;18.40;;;20.10;57.60;;;;;;5031140;28;20508;-52
2023/04/16 09:10:31;;;;;;;32.90;18.75;;;20.10;57.80;;;;;;5031876;28;20539;-50
2023/04/16 09:12:57;;;;;;;33.05;17.27;;;20.10;57.90;;;;;;5034908;28;20178;-49
2023/04/16 09:15:26;;;;;;;28.98;15.75;;;20.10;58.10;;;;;;5031843;28;20037;-52
2023/04/16 09:17:53;;;;;;;27.38;15.38;;;20.10;58.20;;;;;;5029713;28;20120;-53
2023/04/16 09:20:19;;;;;;;30.20;14.73;;;20.00;58.20;;;;;;5031301;28;20061;-50
2023/04/16 09:22:45;;;;;;;30.30;15.63;;;20.00;58.30;;;;;;5029868;28;20071;-54
2023/04/16 09:25:11;;;;;;;22.38;14.30;;;20.00;58.30;;;;;;5031250;28;20094;-51
2023/04/16 09:27:38;;;;;;;31.58;14.70;;;20.00;58.60;;;;;;5032043;28;20444;-51
2023/04/16 09:30:27;;;;;;;28.85;12.98;;;19.90;58.60;;;;;;5029693;28;20197;-50
2023/04/16 09:33:15;;;;;;;26.42;13.18;;;20.00;58.90;;;;;;5034072;28;20104;-51
2023/04/16 09:35:46;;;;;;;23.30;13.25;;;19.90;58.90;;;;;;5035728;28;20490;-50
2023/04/16 09:38:11;;;;;;;23.85;12.30;;;19.90;58.90;;;;;;5030936;28;20245;-53
2023/04/16 09:40:38;;;;;;;25.85;11.73;;;19.90;59.20;;;;;;5029570;28;20037;-49
2023/04/16 09:43:16;;;;;;;22.35;9.90;;;19.90;59.40;;;;;;5030036;28;20386;-54
2023/04/16 09:45:47;;;;;;;19.85;10.68;;;19.80;59.40;;;;;;5034438;28;20411;-51
2023/04/16 09:48:13;;;;;;;12.60;9.13;;;19.80;59.40;;;;;;5025811;28;20021;-54
2023/04/16 09:50:38;;;;;;;17.20;9.85;;;19.80;59.40;;;;;;5033824;28;20036;-54
2023/04/16 09:53:04;;;;;;;14.90;8.80;;;19.70;59.30;;;;;;5032338;28;20029;-57
2023/04/16 09:55:29;;;;;;;19.25;9.40;;;19.70;59.30;;;;;;5032758;28;20040;-51
2023/04/16 09:57:59;;;;;;;16.17;8.23;;;19.70;59.30;;;;;;5030046;28;20080;-53
2023/04/16 10:00:25;;;;;;;18.73;7.63;;;19.70;59.60;;;;;;5032284;28;20574;-52
2023/04/16 10:03:03;;;;;;;10.00;6.85;;;19.80;59.90;;;;;;5039741;28;20047;-54
2023/04/16 10:05:28;;;;;;;12.45;6.93;;;19.80;59.70;;;;;;5037232;28;20034;-48
2023/04/16 10:07:59;;;;;;;11.00;6.28;;;19.80;59.60;;;;;;5032210;28;20370;-55
2023/04/16 10:10:25;;;;;;;13.63;6.78;;;19.80;59.60;;;;;;5035397;28;20120;-48
2023/04/16 10:12:51;;;;;;;9.07;6.55;;;19.80;60.10;;;;;;5037853;28;20120;-51
2023/04/16 10:15:16;;;;;;;9.30;5.20;;;19.80;59.40;;;;;;5037256;28;20045;-48
2023/04/16 10:17:42;;;;;;;9.82;5.38;;;19.80;59.40;;;;;;5032778;28;20033;-53
2023/04/16 10:20:08;;;;;;;9.27;5.45;;;19.80;59.60;;;;;;5033565;28;20495;-51
2023/04/16 10:22:34;;;;;;;11.00;5.38;;;19.80;59.60;;;;;;5034263;28;20029;-55
2023/04/16 10:25:00;;;;;;;10.32;5.30;;;19.80;59.50;;;;;;5034769;28;20059;-53
2023/04/16 10:27:26;;;;;;;9.73;5.65;;;19.80;59.70;;;;;;5033578;28;20119;-55
2023/04/16 10:29:52;;;;;;;7.25;4.63;;;19.80;59.60;;;;;;5036210;28;20038;-55
2023/04/16 10:32:19;;;;;;;9.73;5.20;;;19.80;59.60;;;;;;5034861;28;20693;-48
2023/04/16 10:34:45;;;;;;;8.50;5.50;;;19.80;59.70;;;;;;5034457;28;20071;-53
2023/04/16 10:37:11;;;;;;;11.10;5.05;;;19.80;59.60;;;;;;5034182;28;20029;-53
2023/04/16 10:39:37;;;;;;;6.80;4.45;;;19.70;59.60;;;;;;5034305;28;20025;-54
2023/04/16 10:42:11;;;;;;;7.72;4.97;;;19.80;59.70;;;;;;5032194;28;20560;-52
2023/04/16 10:44:37;;;;;;;8.55;4.72;;;19.80;59.60;;;;;;5033172;28;20040;-50
2023/04/16 10:47:09;;;;;;;6.97;4.93;;;19.80;59.60;;;;;;5032088;28;20116;-52
2023/04/16 10:49:35;;;;;;;9.48;4.88;;;19.80;59.50;;;;;;5033552;28;20056;-52
2023/04/16 10:52:08;;;;;;;11.35;5.03;;;19.80;59.40;;;;;;5032638;28;20163;-50
2023/04/16 10:54:35;;;;;;;15.18;4.97;;;19.80;59.20;;;;;;5033358;28;20482;-48
2023/04/16 10:57:25;;;;;;;8.25;4.65;;;19.80;59.20;;;;;;5030893;28;20388;-56
2023/04/16 10:59:50;;;;;;;11.13;4.13;;;19.80;59.10;;;;;;5053036;28;20212;-55
2023/04/16 11:02:17;;;;;;;9.30;4.05;;;19.80;59.10;;;;;;5038283;28;20057;-53
2023/04/16 11:04:44;;;;;;;5.85;3.60;;;19.80;59.10;;;;;;5034208;28;20029;-56
2023/04/16 11:07:15;;;;;;;12.18;4.35;;;19.80;59.00;;;;;;5034271;28;20057;-50
2023/04/16 11:09:55;;;;;;;9.68;4.18;;;19.80;59.00;;;;;;5032989;28;20486;-52
2023/04/16 11:12:28;;;;;;;8.60;4.20;;;19.80;59.00;;;;;;5034490;28;20042;-49
2023/04/16 11:15:05;;;;;;;12.07;4.28;;;19.70;58.90;;;;;;5032205;28;20041;-49
2023/04/16 11:17:43;;;;;;;8.02;4.15;;;19.80;58.90;;;;;;5034584;28;20098;-51
2023/04/16 11:20:15;;;;;;;10.80;4.25;;;19.70;58.90;;;;;;5030065;28;20116;-53
2023/04/16 11:22:41;;;;;;;10.82;5.05;;;19.70;58.80;;;;;;5035220;28;20170;-48
2023/04/16 11:25:07;;;;;;;13.00;4.97;;;19.70;58.90;;;;;;5031999;28;20120;-50
2023/04/16 11:27:32;;;;;;;12.38;5.20;;;19.70;58.80;;;;;;5036592;28;20041;-50
2023/04/16 11:29:59;;;;;;;8.35;4.30;;;19.70;58.80;;;;;;5037044;28;20036;-51
2023/04/16 11:32:24;;;;;;;10.45;5.18;;;19.70;58.80;;;;;;5036489;28;20029;-51
2023/04/16 11:34:50;;;;;;;10.38;5.20;;;19.60;58.70;;;;;;5034546;28;20033;-53
2023/04/16 11:37:20;;;;;;;10.20;4.53;;;19.60;58.80;;;;;;5033584;28;20029;-55
2023/04/16 11:39:50;;;;;;;11.98;4.88;;;19.60;58.90;;;;;;5036021;28;20487;-52
2023/04/16 11:42:21;;;;;;;9.07;4.30;;;19.60;58.90;;;;;;5027415;28;21577;-51
2023/04/16 11:44:54;;;;;;;6.28;4.13;;;19.60;59.00;;;;;;5031305;28;20068;-51
2023/04/16 11:47:19;;;;;;;7.50;4.07;;;19.60;59.00;;;;;;5028022;28;20422;-52
2023/04/16 11:49:45;;;;;;;7.90;4.35;;;19.60;59.10;;;;;;5032635;28;20055;-52
2023/04/16 11:52:10;;;;;;;9.45;4.57;;;19.60;59.20;;;;;;5029691;28;20033;-51
2023/04/16 11:54:36;;;;;;;7.53;4.40;;;19.60;59.20;;;;;;5031944;28;20064;-51
2023/04/16 11:57:03;;;;;;;8.35;3.75;;;19.60;59.30;;;;;;5034041;28;20032;-52
2023/04/16 11:59:29;;;;;;;7.95;4.78;;;19.60;59.20;;;;;;5030273;28;20034;-50
2023/04/16 12:01:55;;;;;;;6.00;4.28;;;19.60;59.20;;;;;;5038048;28;20052;-50
2023/04/16 12:04:25;;;;;;;7.00;4.35;;;19.60;59.50;;;;;;5031905;28;20060;-54
2023/04/16 12:07:07;;;;;;;7.32;3.67;;;19.60;59.50;;;;;;5035800;28;20595;-54
2023/04/16 12:09:34;;;;;;;3.47;3.15;;;19.60;59.60;;;;;;5035069;28;20564;-53
2023/04/16 12:12:00;;;;;;;6.90;3.92;;;19.60;59.90;;;;;;5031642;28;20041;-52
2023/04/16 12:14:25;;;;;;;6.85;3.65;;;19.60;59.90;;;;;;5030267;28;20103;-52
2023/04/16 12:16:51;;;;;;;7.90;3.72;;;19.50;60.10;;;;;;5031308;28;20038;-55
2023/04/16 12:19:17;;;;;;;6.93;4.00;;;19.50;60.20;;;;;;5030568;28;20029;-50
2023/04/16 12:21:45;;;;;;;8.23;4.10;;;19.50;60.50;;;;;;5033244;28;20034;-53
2023/04/16 12:24:14;;;;;;;5.28;4.03;;;19.50;60.30;;;;;;5032365;28;20064;-48
2023/04/16 12:26:42;;;;;;;4.93;3.58;;;19.50;60.80;;;;;;5033979;28;20044;-50
2023/04/16 12:29:23;;;;;;;5.32;3.50;;;19.50;60.70;;;;;;5034579;28;20164;-51
2023/04/16 12:31:50;;;;;;;7.07;3.60;;;19.50;60.70;;;;;;5033044;28;20364;-52
2023/04/16 12:34:16;;;;;;;4.57;3.50;;;19.40;60.50;;;;;;5031856;28;20197;-50
2023/04/16 12:36:42;;;;;;;6.10;3.95;;;19.40;60.50;;;;;;5032764;28;20037;-48
2023/04/16 12:39:09;;;;;;;21.90;9.35;;;19.40;60.40;;;;;;5030153;28;20029;-56
2023/04/16 12:41:37;;;;;;;80.82;29.70;;;19.40;60.60;;;;;;5037970;28;20025;-51